createdAt,value
2022-11-08T00:00:15.468Z,5.40
2022-11-08T00:02:43.190Z,5.47
2022-11-08T00:05:29.051Z,5.03
2022-11-08T00:08:15.237Z,5.20
2022-11-08T00:11:01.797Z,5.13
2022-11-08T00:13:48.072Z,5.07
2022-11-08T00:16:15.333Z,4.57
2022-11-08T00:18:42.623Z,4.83
2022-11-08T00:21:10.042Z,4.90
2022-11-08T00:23:37.492Z,4.47
2022-11-08T00:26:05.109Z,4.80
2022-11-08T00:28:32.610Z,4.47
2022-11-08T00:31:08.013Z,4.87
2022-11-08T00:33:35.596Z,5.20
2022-11-08T00:36:03.941Z,5.07
2022-11-08T00:38:34.286Z,4.37
2022-11-08T00:41:01.579Z,4.47
2022-11-08T00:43:28.863Z,4.47
2022-11-08T00:45:56.149Z,4.37
2022-11-08T00:48:23.425Z,4.43
2022-11-08T00:50:50.764Z,4.00
2022-11-08T00:53:18.589Z,4.20
2022-11-08T00:55:45.857Z,4.60
2022-11-08T00:58:13.133Z,4.57
2022-11-08T01:00:40.425Z,4.73
2022-11-08T01:03:19.816Z,4.20
2022-11-08T01:05:52.624Z,4.60
2022-11-08T01:08:22.270Z,4.70
2022-11-08T01:10:51.720Z,4.13
2022-11-08T01:13:19.553Z,4.50
2022-11-08T01:15:46.952Z,4.00
2022-11-08T01:18:16.445Z,4.87
2022-11-08T01:20:45.418Z,3.73
2022-11-08T01:23:13.794Z,4.23
2022-11-08T01:25:46.640Z,3.83
2022-11-08T01:28:14.082Z,5.23
2022-11-08T01:30:43.321Z,4.83
2022-11-08T01:33:11.920Z,4.03
2022-11-08T01:35:40.137Z,4.30
2022-11-08T01:38:07.417Z,4.00
2022-11-08T01:40:43.161Z,4.37
2022-11-08T01:43:31.668Z,4.20
2022-11-08T01:46:29.629Z,4.27
2022-11-08T01:49:17.168Z,4.33
2022-11-08T01:52:03.801Z,4.03
2022-11-08T01:54:59.013Z,4.57
2022-11-08T01:57:38.615Z,4.20
2022-11-08T02:00:08.748Z,4.67
2022-11-08T02:02:38.937Z,4.60
2022-11-08T02:05:24.610Z,4.73
2022-11-08T02:08:03.004Z,4.17
2022-11-08T02:10:40.724Z,4.73
2022-11-08T02:13:15.155Z,4.63
2022-11-08T02:15:43.341Z,4.63
2022-11-08T02:18:11.388Z,4.60
2022-11-08T02:20:48.871Z,4.73
2022-11-08T02:23:23.708Z,4.90
2022-11-08T02:25:51.005Z,5.07
2022-11-08T02:28:18.900Z,4.90
2022-11-08T02:30:46.439Z,5.60
2022-11-08T02:33:23.378Z,4.57
2022-11-08T02:35:56.033Z,5.00
2022-11-08T02:38:25.785Z,4.53
2022-11-08T02:40:55.228Z,5.13
2022-11-08T02:43:24.212Z,5.27
2022-11-08T02:45:52.711Z,4.60
2022-11-08T02:48:20.794Z,5.20
2022-11-08T02:50:48.518Z,5.43
2022-11-08T02:53:16.033Z,6.20
2022-11-08T02:55:43.694Z,5.70
2022-11-08T02:58:12.411Z,4.87
2022-11-08T03:00:40.925Z,4.93
2022-11-08T03:03:08.316Z,4.77
2022-11-08T03:05:36.205Z,5.20
2022-11-08T03:08:03.789Z,4.30
2022-11-08T03:10:31.184Z,5.03
2022-11-08T03:13:01.121Z,4.97
2022-11-08T03:15:29.160Z,5.13
2022-11-08T03:17:57.282Z,4.77
2022-11-08T03:20:29.560Z,5.10
2022-11-08T03:23:05.135Z,5.50
2022-11-08T03:25:33.345Z,5.10
2022-11-08T03:28:08.814Z,5.10
2022-11-08T03:30:37.031Z,4.90
2022-11-08T03:33:04.997Z,4.80
2022-11-08T03:35:32.369Z,5.50
2022-11-08T03:37:59.985Z,5.07
2022-11-08T03:40:27.557Z,4.57
2022-11-08T03:42:58.286Z,4.90
2022-11-08T03:45:25.895Z,5.17
2022-11-08T03:47:53.472Z,5.40
2022-11-08T03:50:20.833Z,4.03
2022-11-08T03:52:50.864Z,4.47
2022-11-08T03:55:20.115Z,4.93
2022-11-08T03:57:49.220Z,4.00
2022-11-08T04:00:19.812Z,4.30
2022-11-08T04:02:47.733Z,4.47
2022-11-08T04:05:16.087Z,4.03
2022-11-08T04:07:43.657Z,4.53
2022-11-08T04:10:12.051Z,4.33
2022-11-08T04:13:00.292Z,4.87
2022-11-08T04:15:29.199Z,3.97
2022-11-08T04:18:16.629Z,4.60
2022-11-08T04:21:06.387Z,4.67
2022-11-08T04:23:36.427Z,4.37
2022-11-08T04:26:11.527Z,4.30
2022-11-08T04:28:40.988Z,4.00
2022-11-08T04:31:14.705Z,4.37
2022-11-08T04:33:42.426Z,4.30
2022-11-08T04:36:15.733Z,5.00
2022-11-08T04:38:43.462Z,4.40
2022-11-08T04:41:13.287Z,4.30
2022-11-08T04:43:43.609Z,5.00
2022-11-08T04:46:13.804Z,4.83
2022-11-08T04:48:42.569Z,4.77
2022-11-08T04:51:16.049Z,4.20
2022-11-08T04:53:43.599Z,4.03
2022-11-08T04:56:13.338Z,4.67
2022-11-08T04:58:43.649Z,4.10
2022-11-08T05:01:15.788Z,4.60
2022-11-08T05:03:44.716Z,4.90
2022-11-08T05:06:14.583Z,4.53
2022-11-08T05:08:42.514Z,5.20
2022-11-08T05:11:12.716Z,4.87
2022-11-08T05:13:40.448Z,5.10
2022-11-08T05:16:14.051Z,4.90
2022-11-08T05:18:42.227Z,5.57
2022-11-08T05:21:34.859Z,4.93
2022-11-08T05:24:03.685Z,4.20
2022-11-08T05:26:34.314Z,4.30
2022-11-08T05:29:01.965Z,3.93
2022-11-08T05:31:29.369Z,4.60
2022-11-08T05:33:56.877Z,4.50
2022-11-08T05:36:24.464Z,4.40
2022-11-08T05:38:51.738Z,4.90
2022-11-08T05:41:21.585Z,4.60
2022-11-08T05:43:51.579Z,4.27
2022-11-08T05:46:20.264Z,4.53
2022-11-08T05:48:48.681Z,4.77
2022-11-08T05:51:18.155Z,4.73
2022-11-08T05:53:46.997Z,4.97
2022-11-08T05:56:14.646Z,5.00
2022-11-08T05:58:41.974Z,4.93
2022-11-08T06:01:15.367Z,5.40
2022-11-08T06:03:43.261Z,4.70
2022-11-08T06:06:21.037Z,5.43
2022-11-08T06:08:50.747Z,4.40
2022-11-08T06:11:25.220Z,5.13
2022-11-08T06:13:53.684Z,10.80
2022-11-08T06:16:23.095Z,10.57
2022-11-08T06:18:50.924Z,5.67
2022-11-08T06:21:20.473Z,5.83
2022-11-08T06:23:48.168Z,5.57
2022-11-08T06:26:15.447Z,6.83
2022-11-08T06:28:42.760Z,7.27
2022-11-08T06:31:10.174Z,7.67
2022-11-08T06:33:37.618Z,7.27
2022-11-08T06:36:06.942Z,7.67
2022-11-08T06:38:34.593Z,9.30
2022-11-08T06:41:02.405Z,8.97
2022-11-08T06:43:30.025Z,8.63
2022-11-08T06:46:02.145Z,8.40
2022-11-08T06:48:35.004Z,8.20
2022-11-08T06:51:04.467Z,8.33
2022-11-08T06:53:32.648Z,8.10
2022-11-08T06:56:03.829Z,7.70
2022-11-08T06:58:32.131Z,7.57
2022-11-08T07:01:04.214Z,7.73
2022-11-08T07:03:32.430Z,7.43
2022-11-08T07:06:06.494Z,7.40
2022-11-08T07:08:35.117Z,7.43
2022-11-08T07:11:02.943Z,7.20
2022-11-08T07:13:30.378Z,7.37
2022-11-08T07:15:59.747Z,7.33
2022-11-08T07:18:27.925Z,7.37
2022-11-08T07:21:01.812Z,7.67
2022-11-08T07:23:29.462Z,7.37
2022-11-08T07:25:59.520Z,6.50
2022-11-08T07:28:26.819Z,6.63
2022-11-08T07:30:59.072Z,6.90
2022-11-08T07:33:26.678Z,6.67
2022-11-08T07:35:54.202Z,7.20
2022-11-08T07:38:22.779Z,7.07
2022-11-08T07:40:51.555Z,6.53
2022-11-08T07:43:24.771Z,6.83
2022-11-08T07:45:56.537Z,8.47
2022-11-08T07:48:24.841Z,8.03
2022-11-08T07:50:52.754Z,7.90
2022-11-08T07:53:20.795Z,7.73
2022-11-08T07:55:54.998Z,6.97
2022-11-08T07:58:22.392Z,7.27
2022-11-08T08:00:50.166Z,6.97
2022-11-08T08:03:18.444Z,7.27
2022-11-08T08:05:50.613Z,7.17
2022-11-08T08:08:18.789Z,7.63
2022-11-08T08:10:46.167Z,7.20
2022-11-08T08:13:13.940Z,7.30
2022-11-08T08:15:41.644Z,7.03
2022-11-08T08:18:10.861Z,8.17
2022-11-08T08:20:38.926Z,8.20
2022-11-08T08:23:06.682Z,7.70
2022-11-08T08:25:34.510Z,8.53
2022-11-08T08:28:01.918Z,8.17
2022-11-08T08:30:30.897Z,8.17
2022-11-08T08:36:00.665Z,7.97
2022-11-08T08:38:27.928Z,8.20
2022-11-08T08:40:55.235Z,8.40
2022-11-08T08:43:23.171Z,8.13
2022-11-08T08:45:50.988Z,8.90
2022-11-08T08:48:18.813Z,8.73
2022-11-08T08:50:46.561Z,8.80
2022-11-08T08:53:13.907Z,9.00
2022-11-08T08:55:42.781Z,9.37
2022-11-08T08:58:10.907Z,9.30
2022-11-08T09:03:27.746Z,9.73
2022-11-08T09:06:00.588Z,9.53
2022-11-08T09:08:28.877Z,9.53
2022-11-08T09:10:58.156Z,9.10
2022-11-08T09:13:26.473Z,8.10
2022-11-08T09:15:54.796Z,8.27
2022-11-08T09:18:22.812Z,9.10
2022-11-08T09:20:50.148Z,8.73
2022-11-08T09:23:18.143Z,9.00
2022-11-08T09:25:45.765Z,9.50
2022-11-08T09:28:13.120Z,9.97
2022-11-08T09:30:40.421Z,9.53
2022-11-08T09:33:07.829Z,11.20
2022-11-08T09:35:36.253Z,11.67
2022-11-08T09:38:03.542Z,11.13
2022-11-08T09:40:40.628Z,9.60
2022-11-08T09:43:39.124Z,8.13
2022-11-08T09:46:11.460Z,6.70
2022-11-08T09:48:44.144Z,7.37
2022-11-08T09:51:16.911Z,6.80
2022-11-08T09:53:55.169Z,7.17
2022-11-08T09:56:25.496Z,6.50
2022-11-08T09:59:02.163Z,6.93
2022-11-08T10:01:34.800Z,7.40
2022-11-08T10:04:22.203Z,6.67
2022-11-08T10:07:03.032Z,7.43
2022-11-08T10:09:46.431Z,6.97
2022-11-08T10:12:32.624Z,7.03
2022-11-08T10:15:32.051Z,7.30
2022-11-08T10:18:21.133Z,6.80
2022-11-08T10:20:57.321Z,7.20
2022-11-08T10:23:40.480Z,6.07
2022-11-08T10:26:24.129Z,5.53
2022-11-08T10:29:01.837Z,4.57
2022-11-08T10:31:35.026Z,4.87
2022-11-08T10:34:09.389Z,5.17
2022-11-08T10:36:49.136Z,5.53
2022-11-08T10:39:31.057Z,5.50
2022-11-08T10:42:26.782Z,5.93
2022-11-08T10:44:54.351Z,5.60
2022-11-08T10:47:24.504Z,5.60
2022-11-08T10:49:55.508Z,5.93
2022-11-08T10:52:34.869Z,6.47
2022-11-08T10:55:05.609Z,6.87
2022-11-08T10:57:32.856Z,5.63
2022-11-08T11:00:22.133Z,6.50
2022-11-08T11:03:15.813Z,6.13
2022-11-08T11:05:57.908Z,6.20
2022-11-08T11:08:25.520Z,5.40
2022-11-08T11:10:53.191Z,5.83
2022-11-08T11:16:03.045Z,5.37
2022-11-08T11:18:35.286Z,5.47
2022-11-08T11:21:18.564Z,5.10
2022-11-08T11:23:55.966Z,5.53
2022-11-08T11:26:28.519Z,5.30
2022-11-08T11:29:09.276Z,4.83
2022-11-08T11:31:42.324Z,5.70
2022-11-08T11:34:19.430Z,5.10
2022-11-08T11:37:22.484Z,5.63
2022-11-08T11:40:06.136Z,5.50
2022-11-08T11:42:45.648Z,5.30
2022-11-08T11:45:20.171Z,5.00
2022-11-08T11:47:53.404Z,5.50
2022-11-08T11:50:29.130Z,5.27
2022-11-08T11:52:58.124Z,5.97
2022-11-08T11:56:03.387Z,5.93
2022-11-08T11:59:04.945Z,5.50
2022-11-08T12:02:07.007Z,5.67
2022-11-08T12:05:08.603Z,5.23
2022-11-08T12:07:50.769Z,4.93
2022-11-08T12:10:57.783Z,5.43
2022-11-08T12:14:01.980Z,5.90
2022-11-08T12:16:52.036Z,4.77
2022-11-08T12:19:42.768Z,5.03
2022-11-08T12:22:31.197Z,5.60
2022-11-08T12:25:18.969Z,5.93
2022-11-08T12:27:54.907Z,5.30
2022-11-08T12:30:49.399Z,5.67
2022-11-08T12:33:45.638Z,6.53
2022-11-08T12:36:34.816Z,6.10
2022-11-08T12:39:12.463Z,5.20
2022-11-08T12:42:04.494Z,6.07
2022-11-08T12:44:57.635Z,6.20
2022-11-08T12:47:47.192Z,6.67
2022-11-08T12:50:23.631Z,6.67
2022-11-08T12:53:15.544Z,6.63
2022-11-08T12:55:47.049Z,7.07
2022-11-08T12:58:34.370Z,6.43
2022-11-08T13:01:13.410Z,7.40
2022-11-08T13:03:45.687Z,6.87
2022-11-08T13:06:24.573Z,8.03
2022-11-08T13:09:10.473Z,7.37
2022-11-08T13:11:48.000Z,8.07
2022-11-08T13:14:17.689Z,7.20
2022-11-08T13:17:06.226Z,8.20
2022-11-08T13:19:49.429Z,7.70
2022-11-08T13:22:29.047Z,8.03
2022-11-08T13:25:08.367Z,7.97
2022-11-08T13:27:40.995Z,7.13
2022-11-08T13:30:11.292Z,6.93
2022-11-08T13:33:04.509Z,7.40
2022-11-08T13:35:49.708Z,6.50
2022-11-08T13:38:48.148Z,7.00
2022-11-08T13:41:21.208Z,7.33
2022-11-08T13:43:49.624Z,6.77
2022-11-08T13:46:25.571Z,7.07
2022-11-08T13:49:01.825Z,7.47
2022-11-08T13:51:36.299Z,7.03
2022-11-08T13:54:24.040Z,6.83
2022-11-08T13:56:56.080Z,6.87
2022-11-08T13:59:32.710Z,6.90
2022-11-08T14:02:21.842Z,7.00
2022-11-08T14:04:49.361Z,7.10
2022-11-08T14:07:47.444Z,6.77
2022-11-08T14:10:23.276Z,7.80
2022-11-08T14:13:07.569Z,6.90
2022-11-08T14:15:46.847Z,7.67
2022-11-08T14:18:29.253Z,7.57
2022-11-08T14:20:57.744Z,7.13
2022-11-08T14:23:29.169Z,6.67
2022-11-08T14:26:15.349Z,8.53
2022-11-08T14:28:45.613Z,6.23
2022-11-08T14:31:28.664Z,6.70
2022-11-08T14:33:56.600Z,6.93
2022-11-08T14:36:25.664Z,7.17
2022-11-08T14:39:03.938Z,5.93
2022-11-08T14:41:33.545Z,5.57
2022-11-08T14:44:02.302Z,5.93
2022-11-08T14:46:34.287Z,5.87
2022-11-08T14:49:32.064Z,5.57
2022-11-08T14:52:17.181Z,5.33
2022-11-08T14:54:46.802Z,5.57
2022-11-08T14:57:42.245Z,4.67
2022-11-08T15:00:26.619Z,5.03
2022-11-08T15:02:56.136Z,6.00
2022-11-08T15:05:40.941Z,5.63
2022-11-08T15:08:22.555Z,5.47
2022-11-08T15:11:00.768Z,5.10
2022-11-08T15:13:34.784Z,5.47
2022-11-08T15:16:04.850Z,4.97
2022-11-08T15:18:43.535Z,5.77
2022-11-08T15:21:28.777Z,4.93
2022-11-08T15:24:13.181Z,5.20
2022-11-08T15:26:58.498Z,5.23
2022-11-08T15:29:26.503Z,5.07
2022-11-08T15:32:01.075Z,5.40
2022-11-08T15:34:40.515Z,5.83
2022-11-08T15:37:33.868Z,5.33
2022-11-08T15:40:04.196Z,4.97
2022-11-08T15:42:33.472Z,4.90
2022-11-08T15:45:04.705Z,5.10
2022-11-08T15:47:35.030Z,4.90
2022-11-08T15:50:02.685Z,4.43
2022-11-08T15:52:30.388Z,4.40
2022-11-08T15:55:00.869Z,4.50
2022-11-08T15:57:28.125Z,4.47
2022-11-08T15:59:55.705Z,4.93
2022-11-08T16:02:24.758Z,5.13
2022-11-08T16:04:52.074Z,5.40
2022-11-08T16:07:19.465Z,4.70
2022-11-08T16:09:47.152Z,5.10
2022-11-08T16:12:15.653Z,4.47
2022-11-08T16:14:43.044Z,5.00
2022-11-08T16:17:14.337Z,5.50
2022-11-08T16:19:41.665Z,5.20
2022-11-08T16:22:09.152Z,5.20
2022-11-08T16:24:36.418Z,5.23
2022-11-08T16:27:03.813Z,4.67
2022-11-08T16:29:31.710Z,5.67
2022-11-08T16:31:59.021Z,5.53
2022-11-08T16:34:26.278Z,4.87
2022-11-08T16:36:54.620Z,5.30
2022-11-08T16:39:26.144Z,6.20
2022-11-08T16:41:53.484Z,5.70
2022-11-08T16:44:20.877Z,5.43
2022-11-08T16:46:48.232Z,5.50
2022-11-08T16:49:23.965Z,4.97
2022-11-08T16:51:51.324Z,5.90
2022-11-08T16:54:23.824Z,6.90
2022-11-08T16:56:51.697Z,5.40
2022-11-08T16:59:19.206Z,5.70
2022-11-08T17:01:48.660Z,5.63
2022-11-08T17:04:16.056Z,5.70
2022-11-08T17:06:43.485Z,5.33
2022-11-08T17:09:11.176Z,6.03
2022-11-08T17:11:39.600Z,6.60
2022-11-08T17:14:09.909Z,6.20
2022-11-08T17:16:37.212Z,6.20
2022-11-08T17:19:05.248Z,5.17
2022-11-08T17:21:48.285Z,5.90
2022-11-08T17:24:21.136Z,6.00
2022-11-08T17:26:49.165Z,6.00
2022-11-08T17:29:16.472Z,6.40
2022-11-08T17:31:44.225Z,6.17
2022-11-08T17:34:11.641Z,6.70
2022-11-08T17:36:38.963Z,7.93
2022-11-08T17:39:06.293Z,9.00
2022-11-08T17:41:33.956Z,7.50
2022-11-08T17:44:01.437Z,8.03
2022-11-08T17:46:28.785Z,9.90
2022-11-08T17:48:56.117Z,8.77
2022-11-08T17:51:23.671Z,8.37
2022-11-08T17:53:51.016Z,9.10
2022-11-08T17:56:19.160Z,8.03
2022-11-08T17:58:46.479Z,6.40
2022-11-08T18:01:15.782Z,5.50
2022-11-08T18:03:43.603Z,5.30
2022-11-08T18:06:13.150Z,6.00
2022-11-08T18:08:41.854Z,5.60
2022-11-08T18:11:09.252Z,6.03
2022-11-08T18:13:36.630Z,5.37
2022-11-08T18:16:07.960Z,5.57
2022-11-08T18:18:35.743Z,5.70
2022-11-08T18:21:03.258Z,6.60
2022-11-08T18:23:30.869Z,6.20
2022-11-08T18:25:58.292Z,6.37
2022-11-08T18:28:25.975Z,7.17
2022-11-08T18:30:53.634Z,10.37
2022-11-08T18:33:21.577Z,9.67
2022-11-08T18:35:49.178Z,9.77
2022-11-08T18:38:16.722Z,9.57
2022-11-08T18:40:48.037Z,10.20
2022-11-08T18:43:15.907Z,10.10
2022-11-08T18:45:43.469Z,9.87
2022-11-08T18:48:10.840Z,9.13
2022-11-08T18:50:38.513Z,9.97
2022-11-08T18:53:07.060Z,9.70
2022-11-08T18:55:34.816Z,10.40
2022-11-08T18:58:02.553Z,8.90
2022-11-08T19:00:29.948Z,9.33
2022-11-08T19:02:57.321Z,9.47
2022-11-08T19:05:24.978Z,9.87
2022-11-08T19:07:52.317Z,10.23
2022-11-08T19:10:19.844Z,9.57
2022-11-08T19:12:47.139Z,10.30
2022-11-08T19:15:14.956Z,9.47
2022-11-08T19:17:42.764Z,8.80
2022-11-08T19:20:10.427Z,10.27
2022-11-08T19:22:37.805Z,9.93
2022-11-08T19:25:05.421Z,9.97
2022-11-08T19:27:32.804Z,9.70
2022-11-08T19:30:01.417Z,10.00
2022-11-08T19:32:28.727Z,9.00
2022-11-08T19:34:56.068Z,9.77
2022-11-08T19:37:23.668Z,8.60
2022-11-08T19:39:51.424Z,9.40
2022-11-08T19:42:18.892Z,8.97
2022-11-08T19:44:46.179Z,9.27
2022-11-08T19:47:13.608Z,9.53
2022-11-08T19:49:41.247Z,9.63
2022-11-08T19:52:09.440Z,8.40
2022-11-08T19:54:36.756Z,8.90
2022-11-08T19:57:05.467Z,9.20
2022-11-08T19:59:33.656Z,9.27
2022-11-08T20:02:01.124Z,9.67
2022-11-08T20:04:28.625Z,8.10
2022-11-08T20:06:56.255Z,8.70
2022-11-08T20:09:29.982Z,8.60
2022-11-08T20:11:58.146Z,8.83
2022-11-08T20:14:25.637Z,8.73
2022-11-08T20:16:54.102Z,8.73
2022-11-08T20:19:21.646Z,8.50
2022-11-08T20:21:50.158Z,8.70
2022-11-08T20:24:18.785Z,8.37
2022-11-08T20:26:46.094Z,8.47
2022-11-08T20:29:14.762Z,8.83
2022-11-08T20:31:42.664Z,8.47
2022-11-08T20:34:11.816Z,8.20
2022-11-08T20:36:40.863Z,8.80
2022-11-08T20:39:08.373Z,8.47
2022-11-08T20:41:37.075Z,8.83
2022-11-08T20:44:06.305Z,8.40
2022-11-08T20:46:34.761Z,8.77
2022-11-08T20:49:03.821Z,8.97
2022-11-08T20:51:31.796Z,8.67
2022-11-08T20:54:00.409Z,8.07
2022-11-08T20:56:28.900Z,8.27
2022-11-08T20:58:57.014Z,7.70
2022-11-08T21:01:29.451Z,8.93
2022-11-08T21:03:57.314Z,9.73
2022-11-08T21:06:26.795Z,8.40
2022-11-08T21:09:00.908Z,8.93
2022-11-08T21:11:30.906Z,8.00
2022-11-08T21:13:58.566Z,8.00
2022-11-08T21:16:30.547Z,8.77
2022-11-08T21:18:59.491Z,9.63
2022-11-08T21:21:27.275Z,9.33
2022-11-08T21:23:54.793Z,9.17
2022-11-08T21:26:24.011Z,8.97
2022-11-08T21:28:52.086Z,10.00
2022-11-08T21:31:19.644Z,9.53
2022-11-08T21:33:47.031Z,10.77
2022-11-08T21:36:14.403Z,9.80
2022-11-08T21:38:41.731Z,9.27
2022-11-08T21:41:10.229Z,9.70
2022-11-08T21:43:42.749Z,9.83
2022-11-08T21:46:28.379Z,9.07
2022-11-08T21:48:58.250Z,9.17
2022-11-08T21:51:26.470Z,8.67
2022-11-08T21:53:55.927Z,8.60
2022-11-08T21:56:25.196Z,9.13
2022-11-08T21:58:52.992Z,9.10
2022-11-08T22:01:25.361Z,9.13
2022-11-08T22:03:54.766Z,10.50
2022-11-08T22:06:22.556Z,10.37
2022-11-08T22:08:50.046Z,11.43
2022-11-08T22:11:17.334Z,11.30
2022-11-08T22:13:44.692Z,10.07
2022-11-08T22:16:12.748Z,10.13
2022-11-08T22:19:03.632Z,10.70
2022-11-08T22:21:40.681Z,10.80
2022-11-08T22:24:18.107Z,9.63
2022-11-08T22:26:46.215Z,9.37
2022-11-08T22:29:14.211Z,10.30
2022-11-08T22:31:42.482Z,9.50
2022-11-08T22:34:10.609Z,9.73
2022-11-08T22:36:44.547Z,10.40
2022-11-08T22:39:15.580Z,9.47
2022-11-08T22:41:44.316Z,9.30
2022-11-08T22:44:12.880Z,9.67
2022-11-08T22:46:41.844Z,10.10
2022-11-08T22:49:10.380Z,9.20
2022-11-08T22:51:38.987Z,8.87
2022-11-08T22:54:06.808Z,8.53
2022-11-08T22:56:35.251Z,8.43
2022-11-08T22:59:03.528Z,8.77
2022-11-08T23:01:30.931Z,11.63
2022-11-08T23:03:58.226Z,13.83
2022-11-08T23:06:25.555Z,25.30
2022-11-08T23:08:52.816Z,12.07
2022-11-08T23:11:38.947Z,10.30
2022-11-08T23:14:25.605Z,11.50
2022-11-08T23:16:52.901Z,12.13
2022-11-08T23:19:54.899Z,11.73
2022-11-08T23:22:41.132Z,9.03
2022-11-08T23:25:09.031Z,9.70
2022-11-08T23:27:54.919Z,8.50
2022-11-08T23:30:40.735Z,8.90
2022-11-08T23:33:08.162Z,9.90
2022-11-08T23:35:35.554Z,8.87
2022-11-08T23:38:03.313Z,8.63
2022-11-08T23:40:49.132Z,8.13
2022-11-08T23:43:37.687Z,7.90
2022-11-08T23:46:10.029Z,8.60
2022-11-08T23:48:38.556Z,7.67
2022-11-08T23:51:06.864Z,8.57
2022-11-08T23:53:39.864Z,8.17
2022-11-08T23:56:07.532Z,8.53
2022-11-08T23:58:34.900Z,8.40
